DAL1166 KJFK-KSAT
Flight info
| Callsign | DAL1166 |
|---|---|
| Flight time | N/A |
| Altitude | 34000 |
| Route | DCT RBV Q430 BYRDD J48 MOL DCT MAULS Q40 ALEAN DCT KT33Q DCT GQO DCT BESOM Q38 ROKIT DCT WAILN QERVO1 |
| Aircraft | A319/M-SDE3FGHIRWY/LB1 |
Departure
| Time | N/A |
|---|---|
| Airport | John F. Kennedy International Airport (KJFK) |
Arrival
| Time | 2026-04-25 21:18 |
|---|---|
| Airport | San Antonio International Airport (KSAT) |
| Time | Latitude | Longitude | Altitude | Speed | Heading |
|---|---|---|---|---|---|
| 2026-04-25 19:52 | 32.89512 | -89.32720 | 33875 ft | 412 kts | 248° |
| 2026-04-25 19:52 | 32.86929 | -89.38812 | 33862 ft | 412 kts | 248° |
| 2026-04-25 19:53 | 32.84343 | -89.44898 | 33848 ft | 412 kts | 248° |
| 2026-04-25 19:53 | 32.81756 | -89.50980 | 33836 ft | 412 kts | 248° |
| 2026-04-25 19:54 | 32.79166 | -89.57054 | 33831 ft | 412 kts | 249° |
| 2026-04-25 19:54 | 32.76575 | -89.63123 | 33833 ft | 412 kts | 249° |
| 2026-04-25 19:55 | 32.74001 | -89.69142 | 33838 ft | 411 kts | 249° |
| 2026-04-25 19:55 | 32.71408 | -89.75195 | 33845 ft | 411 kts | 249° |
| 2026-04-25 19:56 | 32.68813 | -89.81243 | 33856 ft | 411 kts | 249° |
| 2026-04-25 19:56 | 32.66215 | -89.87286 | 33874 ft | 411 kts | 249° |
| 2026-04-25 19:57 | 32.63618 | -89.93317 | 33883 ft | 410 kts | 249° |
| 2026-04-25 19:57 | 32.61020 | -89.99341 | 33888 ft | 410 kts | 249° |
| 2026-04-25 19:58 | 32.58423 | -90.05353 | 33895 ft | 410 kts | 249° |
| 2026-04-25 19:58 | 32.55824 | -90.11359 | 33892 ft | 409 kts | 249° |
| 2026-04-25 19:59 | 32.53665 | -90.16342 | 33898 ft | 409 kts | 249° |
| 2026-04-25 19:59 | 32.51066 | -90.22331 | 33892 ft | 408 kts | 249° |
| 2026-04-25 20:00 | 32.48466 | -90.28313 | 33889 ft | 408 kts | 249° |
| 2026-04-25 20:00 | 32.45866 | -90.34284 | 33884 ft | 408 kts | 249° |
| 2026-04-25 20:01 | 32.41961 | -90.43237 | 33892 ft | 408 kts | 249° |
| 2026-04-25 20:01 | 32.39355 | -90.49198 | 33885 ft | 408 kts | 249° |
| 2026-04-25 20:02 | 32.36744 | -90.55160 | 33902 ft | 408 kts | 249° |
| 2026-04-25 20:02 | 32.34132 | -90.61117 | 33888 ft | 408 kts | 249° |
| 2026-04-25 20:03 | 32.31543 | -90.67009 | 33898 ft | 408 kts | 249° |
| 2026-04-25 20:03 | 32.28922 | -90.72965 | 33901 ft | 408 kts | 248° |
| 2026-04-25 20:04 | 32.26316 | -90.78878 | 33889 ft | 409 kts | 248° |
| 2026-04-25 20:04 | 32.23684 | -90.84838 | 33888 ft | 409 kts | 248° |
| 2026-04-25 20:05 | 32.21049 | -90.90797 | 33896 ft | 410 kts | 248° |
| 2026-04-25 20:05 | 32.18407 | -90.96759 | 33896 ft | 410 kts | 248° |
| 2026-04-25 20:06 | 32.15759 | -91.02725 | 33896 ft | 410 kts | 248° |
| 2026-04-25 20:06 | 32.13105 | -91.08694 | 33900 ft | 411 kts | 247° |
| 2026-04-25 20:07 | 32.10446 | -91.14666 | 33907 ft | 411 kts | 247° |
| 2026-04-25 20:07 | 32.07780 | -91.20642 | 33908 ft | 412 kts | 247° |
| 2026-04-25 20:08 | 32.05110 | -91.26621 | 33912 ft | 412 kts | 247° |
| 2026-04-25 20:08 | 32.02436 | -91.32603 | 33912 ft | 413 kts | 247° |
| 2026-04-25 20:09 | 31.99754 | -91.38586 | 33911 ft | 413 kts | 247° |
| 2026-04-25 20:09 | 31.97013 | -91.44497 | 33913 ft | 414 kts | 246° |
| 2026-04-25 20:10 | 31.94238 | -91.50448 | 33911 ft | 415 kts | 246° |
| 2026-04-25 20:10 | 31.91465 | -91.56410 | 33905 ft | 415 kts | 246° |
| 2026-04-25 20:11 | 31.88694 | -91.62370 | 33906 ft | 415 kts | 246° |
| 2026-04-25 20:11 | 31.85917 | -91.68331 | 33911 ft | 415 kts | 246° |
| 2026-04-25 20:12 | 31.83139 | -91.74285 | 33904 ft | 415 kts | 246° |
| 2026-04-25 20:12 | 31.80827 | -91.79234 | 33907 ft | 415 kts | 246° |
| 2026-04-25 20:13 | 31.77604 | -91.86119 | 33905 ft | 415 kts | 246° |
| 2026-04-25 20:13 | 31.74817 | -91.92064 | 33905 ft | 415 kts | 247° |
| 2026-04-25 20:14 | 31.72034 | -91.97992 | 33902 ft | 414 kts | 247° |
| 2026-04-25 20:14 | 31.69267 | -92.03875 | 33899 ft | 414 kts | 247° |
| 2026-04-25 20:15 | 31.66482 | -92.09788 | 33900 ft | 413 kts | 247° |
| 2026-04-25 20:15 | 31.63697 | -92.15692 | 33894 ft | 413 kts | 247° |
| 2026-04-25 20:16 | 31.60916 | -92.21580 | 33892 ft | 412 kts | 247° |
| 2026-04-25 20:16 | 31.58132 | -92.27464 | 33894 ft | 412 kts | 247° |
| 2026-04-25 20:17 | 31.55355 | -92.33323 | 33893 ft | 411 kts | 248° |
| 2026-04-25 20:17 | 31.52579 | -92.39173 | 33895 ft | 410 kts | 248° |
| 2026-04-25 20:18 | 31.49806 | -92.45008 | 33889 ft | 409 kts | 248° |
| 2026-04-25 20:18 | 31.47032 | -92.50832 | 33887 ft | 409 kts | 248° |
| 2026-04-25 20:19 | 31.44265 | -92.56636 | 33882 ft | 408 kts | 248° |
| 2026-04-25 20:19 | 31.41515 | -92.62396 | 33882 ft | 408 kts | 248° |
| 2026-04-25 20:20 | 31.38749 | -92.68181 | 33877 ft | 407 kts | 248° |
| 2026-04-25 20:20 | 31.35982 | -92.73959 | 33875 ft | 407 kts | 248° |
| 2026-04-25 20:21 | 31.33222 | -92.79736 | 33876 ft | 406 kts | 248° |
| 2026-04-25 20:21 | 31.30476 | -92.85512 | 33870 ft | 406 kts | 248° |
| 2026-04-25 20:22 | 31.28190 | -92.90314 | 33863 ft | 407 kts | 248° |
| 2026-04-25 20:22 | 31.24968 | -92.97066 | 33863 ft | 407 kts | 248° |
| 2026-04-25 20:23 | 31.22202 | -93.02851 | 33855 ft | 407 kts | 248° |
| 2026-04-25 20:23 | 31.19437 | -93.08624 | 33854 ft | 407 kts | 248° |
| 2026-04-25 20:24 | 31.16665 | -93.14402 | 33858 ft | 408 kts | 248° |
| 2026-04-25 20:24 | 31.13887 | -93.20184 | 33853 ft | 408 kts | 248° |
| 2026-04-25 20:25 | 31.11124 | -93.25927 | 33869 ft | 409 kts | 248° |
| 2026-04-25 20:25 | 31.08333 | -93.31719 | 33867 ft | 410 kts | 247° |
| 2026-04-25 20:26 | 31.05539 | -93.37508 | 33868 ft | 410 kts | 247° |
| 2026-04-25 20:26 | 31.02740 | -93.43300 | 33864 ft | 410 kts | 247° |
| 2026-04-25 20:27 | 30.99935 | -93.49094 | 33867 ft | 410 kts | 247° |
| 2026-04-25 20:27 | 30.97130 | -93.54879 | 33861 ft | 410 kts | 247° |
| 2026-04-25 20:28 | 30.94322 | -93.60662 | 33861 ft | 410 kts | 247° |
| 2026-04-25 20:28 | 30.91516 | -93.66432 | 33853 ft | 409 kts | 247° |
| 2026-04-25 20:29 | 30.88707 | -93.72199 | 33847 ft | 409 kts | 247° |
| 2026-04-25 20:29 | 30.85898 | -93.77958 | 33843 ft | 409 kts | 247° |
| 2026-04-25 20:30 | 30.83087 | -93.83712 | 33838 ft | 409 kts | 247° |
| 2026-04-25 20:30 | 30.80272 | -93.89468 | 33842 ft | 409 kts | 247° |
| 2026-04-25 20:31 | 30.77460 | -93.95207 | 33837 ft | 409 kts | 247° |
| 2026-04-25 20:31 | 30.74664 | -94.00906 | 33837 ft | 408 kts | 247° |
| 2026-04-25 20:32 | 30.71856 | -94.06643 | 33837 ft | 408 kts | 248° |
| 2026-04-25 20:32 | 30.69043 | -94.12375 | 33836 ft | 408 kts | 247° |
| 2026-04-25 20:33 | 30.66221 | -94.18096 | 33832 ft | 408 kts | 247° |
| 2026-04-25 20:33 | 30.64330 | -94.21923 | 33837 ft | 408 kts | 247° |
| 2026-04-25 20:34 | 30.60565 | -94.29531 | 33835 ft | 408 kts | 247° |
| 2026-04-25 20:34 | 30.57735 | -94.35244 | 33832 ft | 408 kts | 247° |
| 2026-04-25 20:35 | 30.54900 | -94.40959 | 33835 ft | 408 kts | 247° |
| 2026-04-25 20:35 | 30.52066 | -94.46665 | 33836 ft | 408 kts | 247° |
| 2026-04-25 20:36 | 30.49491 | -94.52486 | 33834 ft | 403 kts | 252° |
| 2026-04-25 20:36 | 30.47422 | -94.58495 | 33838 ft | 400 kts | 255° |
| 2026-04-25 20:37 | 30.45462 | -94.64495 | 33839 ft | 400 kts | 255° |
| 2026-04-25 20:37 | 30.43485 | -94.70531 | 33836 ft | 400 kts | 255° |
| 2026-04-25 20:38 | 30.41513 | -94.76556 | 33839 ft | 400 kts | 255° |
| 2026-04-25 20:38 | 30.39541 | -94.82578 | 33836 ft | 400 kts | 255° |
| 2026-04-25 20:39 | 30.37564 | -94.88599 | 33834 ft | 400 kts | 255° |
| 2026-04-25 20:39 | 30.36243 | -94.92618 | 33836 ft | 399 kts | 255° |
| 2026-04-25 20:40 | 30.33609 | -95.00618 | 33835 ft | 399 kts | 255° |
| 2026-04-25 20:40 | 30.31628 | -95.06623 | 33832 ft | 399 kts | 255° |
| 2026-04-25 20:41 | 30.29645 | -95.12623 | 33834 ft | 399 kts | 255° |
| 2026-04-25 20:41 | 30.27660 | -95.18621 | 33836 ft | 399 kts | 255° |
| 2026-04-25 20:42 | 30.25673 | -95.24612 | 33834 ft | 399 kts | 255° |
| 2026-04-25 20:42 | 30.23681 | -95.30607 | 33837 ft | 399 kts | 255° |
| 2026-04-25 20:43 | 30.21687 | -95.36597 | 33836 ft | 399 kts | 255° |
| 2026-04-25 20:43 | 30.19765 | -95.42362 | 33833 ft | 399 kts | 255° |
| 2026-04-25 20:44 | 30.17767 | -95.48344 | 33825 ft | 399 kts | 255° |
| 2026-04-25 20:44 | 30.15763 | -95.54334 | 33828 ft | 400 kts | 255° |
| 2026-04-25 20:45 | 30.13755 | -95.60326 | 33835 ft | 400 kts | 255° |
| 2026-04-25 20:45 | 30.11743 | -95.66316 | 33838 ft | 400 kts | 255° |
| 2026-04-25 20:46 | 30.09732 | -95.72296 | 33814 ft | 400 kts | 255° |
| 2026-04-25 20:46 | 30.08054 | -95.77277 | 33800 ft | 400 kts | 255° |
| 2026-04-25 20:47 | 30.06423 | -95.82111 | 33767 ft | 400 kts | 255° |
| 2026-04-25 20:47 | 30.05461 | -95.84949 | 33742 ft | 400 kts | 254° |
| 2026-04-25 20:48 | 30.03470 | -95.90801 | 33753 ft | 399 kts | 254° |
| 2026-04-25 20:48 | 30.01446 | -95.96772 | 33758 ft | 399 kts | 254° |
| 2026-04-25 20:49 | 29.99425 | -96.02738 | 33744 ft | 399 kts | 254° |
| 2026-04-25 20:49 | 29.97403 | -96.08697 | 33742 ft | 399 kts | 254° |
| 2026-04-25 20:50 | 29.95377 | -96.14654 | 33711 ft | 399 kts | 254° |
| 2026-04-25 20:50 | 29.93347 | -96.20614 | 33684 ft | 399 kts | 254° |
| 2026-04-25 20:51 | 29.91316 | -96.26562 | 33679 ft | 399 kts | 254° |
| 2026-04-25 20:51 | 29.89279 | -96.32520 | 33699 ft | 399 kts | 254° |
| 2026-04-25 20:52 | 29.87586 | -96.37465 | 33710 ft | 400 kts | 254° |
| 2026-04-25 20:52 | 29.85195 | -96.44432 | 33733 ft | 400 kts | 254° |
| 2026-04-25 20:53 | 29.83147 | -96.50387 | 33723 ft | 400 kts | 254° |
| 2026-04-25 20:53 | 29.82180 | -96.53389 | 33557 ft | 398 kts | 258° |
| 2026-04-25 20:53 | 29.81526 | -96.56427 | 33299 ft | 394 kts | 264° |
| 2026-04-25 20:54 | 29.81210 | -96.59539 | 33030 ft | 391 kts | 270° |
| 2026-04-25 20:54 | 29.81224 | -96.62670 | 32481 ft | 391 kts | 276° |
| 2026-04-25 20:54 | 29.81458 | -96.65815 | 31470 ft | 399 kts | 277° |
| 2026-04-25 20:54 | 29.81699 | -96.69017 | 30625 ft | 402 kts | 277° |
| 2026-04-25 20:55 | 29.81933 | -96.72205 | 30073 ft | 397 kts | 277° |
| 2026-04-25 20:55 | 29.82161 | -96.75339 | 29761 ft | 388 kts | 277° |
| 2026-04-25 20:55 | 29.82384 | -96.78425 | 29212 ft | 385 kts | 277° |
| 2026-04-25 20:55 | 29.82605 | -96.81482 | 28670 ft | 380 kts | 277° |
| 2026-04-25 20:56 | 29.82823 | -96.84495 | 28138 ft | 375 kts | 277° |
| 2026-04-25 20:56 | 29.83037 | -96.87472 | 27600 ft | 370 kts | 277° |
| 2026-04-25 20:56 | 29.83248 | -96.90406 | 27089 ft | 365 kts | 277° |
| 2026-04-25 20:56 | 29.83455 | -96.93304 | 26577 ft | 361 kts | 277° |
| 2026-04-25 20:57 | 29.83660 | -96.96171 | 26063 ft | 357 kts | 276° |
| 2026-04-25 20:57 | 29.83862 | -96.99013 | 25552 ft | 354 kts | 276° |
| 2026-04-25 20:57 | 29.84062 | -97.01822 | 25043 ft | 351 kts | 276° |
| 2026-04-25 20:57 | 29.84255 | -97.04549 | 24543 ft | 349 kts | 276° |
| 2026-04-25 20:58 | 29.84451 | -97.07325 | 24035 ft | 347 kts | 276° |
| 2026-04-25 20:58 | 29.84648 | -97.10112 | 23808 ft | 358 kts | 276° |
| 2026-04-25 20:58 | 29.84851 | -97.12969 | 23775 ft | 364 kts | 276° |
| 2026-04-25 20:58 | 29.85055 | -97.15865 | 23559 ft | 363 kts | 276° |
| 2026-04-25 20:59 | 29.85260 | -97.18780 | 22831 ft | 368 kts | 276° |
| 2026-04-25 20:59 | 29.85467 | -97.21717 | 21756 ft | 378 kts | 276° |
| 2026-04-25 20:59 | 29.85680 | -97.24744 | 21040 ft | 377 kts | 275° |
| 2026-04-25 20:59 | 29.85888 | -97.27723 | 20639 ft | 368 kts | 275° |
| 2026-04-25 21:00 | 29.86087 | -97.30614 | 20427 ft | 355 kts | 275° |
| 2026-04-25 21:00 | 29.86215 | -97.32478 | 20299 ft | 352 kts | 275° |
| 2026-04-25 21:00 | 29.86525 | -97.36974 | 19742 ft | 357 kts | 275° |
| 2026-04-25 21:01 | 29.86719 | -97.39809 | 19344 ft | 354 kts | 275° |
| 2026-04-25 21:01 | 29.86912 | -97.42621 | 18946 ft | 351 kts | 274° |
| 2026-04-25 21:01 | 29.87102 | -97.45418 | 18579 ft | 350 kts | 274° |
| 2026-04-25 21:01 | 29.87291 | -97.48216 | 18098 ft | 352 kts | 274° |
| 2026-04-25 21:02 | 29.87479 | -97.51014 | 17603 ft | 347 kts | 274° |
| 2026-04-25 21:02 | 29.87662 | -97.53769 | 17339 ft | 345 kts | 274° |
| 2026-04-25 21:02 | 29.87846 | -97.56537 | 17050 ft | 347 kts | 274° |
| 2026-04-25 21:02 | 29.88030 | -97.59308 | 16745 ft | 347 kts | 274° |
| 2026-04-25 21:03 | 29.88212 | -97.62071 | 16364 ft | 345 kts | 274° |
| 2026-04-25 21:03 | 29.88393 | -97.64810 | 15977 ft | 341 kts | 274° |
| 2026-04-25 21:03 | 29.88572 | -97.67531 | 15600 ft | 341 kts | 274° |
| 2026-04-25 21:03 | 29.88748 | -97.70223 | 15230 ft | 341 kts | 274° |
| 2026-04-25 21:04 | 29.88926 | -97.72949 | 14844 ft | 340 kts | 274° |
| 2026-04-25 21:04 | 29.89103 | -97.75659 | 14468 ft | 339 kts | 274° |
| 2026-04-25 21:04 | 29.89279 | -97.78367 | 14084 ft | 338 kts | 274° |
| 2026-04-25 21:04 | 29.89453 | -97.81051 | 13703 ft | 336 kts | 274° |
| 2026-04-25 21:05 | 29.89600 | -97.83747 | 13304 ft | 336 kts | 270° |
| 2026-04-25 21:05 | 29.89418 | -97.86429 | 12925 ft | 335 kts | 261° |
| 2026-04-25 21:05 | 29.88836 | -97.89030 | 12640 ft | 336 kts | 251° |
| 2026-04-25 21:05 | 29.88002 | -97.91541 | 12325 ft | 336 kts | 250° |
| 2026-04-25 21:06 | 29.87176 | -97.94049 | 12051 ft | 331 kts | 250° |
| 2026-04-25 21:06 | 29.86379 | -97.96497 | 11708 ft | 324 kts | 252° |
| 2026-04-25 21:06 | 29.85728 | -97.98994 | 11113 ft | 325 kts | 255° |
| 2026-04-25 21:06 | 29.85327 | -98.00632 | 11010 ft | 316 kts | 255° |
| 2026-04-25 21:07 | 29.84561 | -98.03789 | 10794 ft | 294 kts | 255° |
| 2026-04-25 21:07 | 29.84020 | -98.06012 | 10339 ft | 287 kts | 255° |
| 2026-04-25 21:07 | 29.83481 | -98.08223 | 9970 ft | 284 kts | 255° |
| 2026-04-25 21:07 | 29.82942 | -98.10416 | 9736 ft | 285 kts | 254° |
| 2026-04-25 21:08 | 29.82401 | -98.12615 | 9461 ft | 285 kts | 254° |
| 2026-04-25 21:08 | 29.81865 | -98.14799 | 9215 ft | 282 kts | 254° |
| 2026-04-25 21:08 | 29.81332 | -98.16963 | 8955 ft | 281 kts | 254° |
| 2026-04-25 21:08 | 29.80796 | -98.19133 | 8703 ft | 282 kts | 253° |
| 2026-04-25 21:09 | 29.79718 | -98.23492 | 7943 ft | 284 kts | 253° |
| 2026-04-25 21:09 | 29.79180 | -98.25670 | 7542 ft | 283 kts | 253° |
| 2026-04-25 21:09 | 29.78643 | -98.27846 | 7202 ft | 279 kts | 253° |
| 2026-04-25 21:10 | 29.78117 | -98.29973 | 6976 ft | 274 kts | 252° |
| 2026-04-25 21:10 | 29.77597 | -98.32072 | 6707 ft | 273 kts | 252° |
| 2026-04-25 21:10 | 29.77080 | -98.34153 | 6437 ft | 274 kts | 252° |
| 2026-04-25 21:10 | 29.76550 | -98.36282 | 6163 ft | 272 kts | 252° |
| 2026-04-25 21:11 | 29.76039 | -98.38341 | 5898 ft | 270 kts | 252° |
| 2026-04-25 21:11 | 29.75524 | -98.40409 | 5870 ft | 268 kts | 252° |
| 2026-04-25 21:11 | 29.75006 | -98.42486 | 5871 ft | 272 kts | 252° |
| 2026-04-25 21:11 | 29.74480 | -98.44588 | 5880 ft | 272 kts | 252° |
| 2026-04-25 21:12 | 29.73958 | -98.46677 | 5884 ft | 272 kts | 252° |
| 2026-04-25 21:12 | 29.73434 | -98.48777 | 5881 ft | 272 kts | 252° |
| 2026-04-25 21:12 | 29.72918 | -98.50848 | 5822 ft | 265 kts | 251° |
| 2026-04-25 21:12 | 29.72585 | -98.52180 | 5769 ft | 258 kts | 251° |
| 2026-04-25 21:13 | 29.71936 | -98.54768 | 5668 ft | 244 kts | 251° |
| 2026-04-25 21:13 | 29.71217 | -98.56459 | 5580 ft | 230 kts | 225° |
| 2026-04-25 21:13 | 29.69936 | -98.57434 | 5494 ft | 218 kts | 197° |
| 2026-04-25 21:13 | 29.68485 | -98.57836 | 5312 ft | 213 kts | 193° |
| 2026-04-25 21:14 | 29.67039 | -98.58219 | 5081 ft | 211 kts | 193° |
| 2026-04-25 21:14 | 29.65656 | -98.58593 | 4936 ft | 198 kts | 193° |
| 2026-04-25 21:14 | 29.64343 | -98.58950 | 4504 ft | 189 kts | 192° |
| 2026-04-25 21:14 | 29.63066 | -98.59038 | 3996 ft | 182 kts | 165° |
| 2026-04-25 21:15 | 29.62037 | -98.58431 | 3853 ft | 154 kts | 144° |
| 2026-04-25 21:15 | 29.61322 | -98.57664 | 3627 ft | 135 kts | 136° |
| 2026-04-25 21:15 | 29.60660 | -98.56836 | 2977 ft | 147 kts | 135° |
| 2026-04-25 21:15 | 29.59995 | -98.55973 | 2569 ft | 141 kts | 134° |
| 2026-04-25 21:16 | 29.59357 | -98.55124 | 2119 ft | 137 kts | 134° |
| 2026-04-25 21:16 | 29.58789 | -98.54385 | 2050 ft | 124 kts | 136° |
| 2026-04-25 21:16 | 29.58207 | -98.53635 | 1967 ft | 122 kts | 136° |
| 2026-04-25 21:16 | 29.57647 | -98.52910 | 1842 ft | 122 kts | 136° |
| 2026-04-25 21:17 | 29.57072 | -98.52171 | 1696 ft | 126 kts | 134° |
| 2026-04-25 21:17 | 29.56504 | -98.51435 | 1526 ft | 127 kts | 133° |
| 2026-04-25 21:17 | 29.55900 | -98.50654 | 1367 ft | 129 kts | 133° |
| 2026-04-25 21:17 | 29.55351 | -98.49939 | 1184 ft | 110 kts | 134° |
| 2026-04-25 21:18 | 29.54833 | -98.49273 | 1025 ft | 117 kts | 133° |
| 2026-04-25 21:18 | 29.54279 | -98.48557 | 855 ft | 121 kts | 133° |
| 2026-04-25 21:18 | 29.53771 | -98.47909 | 808 ft | 78 kts | 131° |
| 2026-04-25 21:18 | 29.53530 | -98.47597 | 799 ft | 38 kts | 132° |
| 2026-04-25 21:19 | 29.53422 | -98.47509 | 800 ft | 10 kts | 198° |
| 2026-04-25 21:19 | 29.53375 | -98.47546 | 800 ft | 0 kts | 213° |
| 2026-04-25 21:19 | 29.53371 | -98.47549 | 800 ft | 0 kts | 213° |
| 2026-04-25 21:20 | 29.53364 | -98.47551 | 801 ft | 5 kts | 184° |
| 2026-04-25 21:20 | 29.53348 | -98.47544 | 801 ft | 9 kts | 152° |
| 2026-04-25 21:20 | 29.53212 | -98.47378 | 799 ft | 23 kts | 131° |
| 2026-04-25 21:20 | 29.53105 | -98.47240 | 798 ft | 20 kts | 135° |
| 2026-04-25 21:21 | 29.52990 | -98.47253 | 796 ft | 16 kts | 166° |
| 2026-04-25 21:21 | 29.52947 | -98.47241 | 795 ft | 0 kts | 166° |